Time;durP1;ratioP1;P1;durP2;ratioP2;P2;SDS_P1;SDS_P2;PMS_P1;PMS_P2;Temp;Humidity;BMP_temperature;BMP_pressure;BME280_temperature;BME280_humidity;BME280_pressure;Samples;Min_cycle;Max_cycle;Signal;HPM_P1;HPM_P2
2021/06/07 00:00:51;;;;;;;8.65;6.15;;;;;;;;;;5051604;28;20468;-74
2021/06/07 00:03:18;;;;;;;10.55;6.25;;;;;;;;;;5052152;28;20068;-74
2021/06/07 00:05:44;;;;;;;6.60;5.43;;;;;;;;;;5042602;28;20425;-74
2021/06/07 00:08:11;;;;;;;11.02;6.00;;;;;;;;;;5049973;28;20060;-74
2021/06/07 00:10:37;;;;;;;11.50;6.35;;;;;;;;;;5056694;28;20068;-73
2021/06/07 00:13:06;;;;;;;7.65;5.95;;;;;;;;;;5059884;28;20397;-74
2021/06/07 00:15:33;;;;;;;8.77;5.57;;;;;;;;;;5054410;28;20040;-73
2021/06/07 00:18:00;;;;;;;8.93;5.78;;;;;;;;;;5050547;28;20055;-74
2021/06/07 00:20:33;;;;;;;7.38;5.15;;;;;;;;;;5056112;28;20460;-74
2021/06/07 00:22:59;;;;;;;8.27;5.63;;;;;;;;;;5059693;28;20063;-74
2021/06/07 00:25:25;;;;;;;8.68;6.25;;;;;;;;;;5055217;28;20048;-73
2021/06/07 00:27:52;;;;;;;8.13;5.90;;;;;;;;;;5062494;28;20040;-74
2021/06/07 00:30:19;;;;;;;10.93;5.85;;;;;;;;;;5057400;28;20446;-73
2021/06/07 00:32:45;;;;;;;13.13;5.97;;;;;;;;;;5055004;28;20048;-74
2021/06/07 00:35:12;;;;;;;7.65;6.20;;;;;;;;;;5054010;28;20125;-73
2021/06/07 00:37:38;;;;;;;9.95;6.70;;;;;;;;;;5057717;28;20468;-74
2021/06/07 00:40:05;;;;;;;7.25;5.80;;;;;;;;;;5039822;28;20040;-74
2021/06/07 00:42:31;;;;;;;9.02;5.72;;;;;;;;;;5064203;28;20521;-74
2021/06/07 00:44:58;;;;;;;14.48;6.22;;;;;;;;;;5048924;28;20400;-74
2021/06/07 00:47:24;;;;;;;8.98;6.07;;;;;;;;;;5054749;28;20037;-73
2021/06/07 00:49:50;;;;;;;9.55;6.72;;;;;;;;;;5067423;28;20456;-74
2021/06/07 00:52:16;;;;;;;8.52;6.15;;;;;;;;;;5049136;28;20136;-74
2021/06/07 00:54:43;;;;;;;10.02;5.85;;;;;;;;;;5062686;28;20041;-74
2021/06/07 00:57:10;;;;;;;8.40;6.30;;;;;;;;;;5049797;28;20048;-73
2021/06/07 00:59:36;;;;;;;9.10;6.60;;;;;;;;;;5052049;28;20044;-74
2021/06/07 01:02:02;;;;;;;11.68;6.30;;;;;;;;;;5058399;28;20080;-74
2021/06/07 01:04:29;;;;;;;9.48;5.75;;;;;;;;;;5057053;28;20041;-74
2021/06/07 01:06:55;;;;;;;9.93;6.35;;;;;;;;;;5060953;28;20045;-74
2021/06/07 01:09:21;;;;;;;9.05;6.32;;;;;;;;;;5055967;28;20052;-74
2021/06/07 01:11:48;;;;;;;7.78;5.90;;;;;;;;;;5056057;28;20468;-73
2021/06/07 01:14:14;;;;;;;9.07;5.72;;;;;;;;;;5055896;28;20116;-73
2021/06/07 01:16:40;;;;;;;7.43;6.00;;;;;;;;;;5043227;28;20036;-73
2021/06/07 01:19:07;;;;;;;8.32;6.07;;;;;;;;;;5057951;28;20053;-74
2021/06/07 01:21:34;;;;;;;11.02;5.85;;;;;;;;;;5055579;28;20480;-74
2021/06/07 01:24:00;;;;;;;10.15;5.80;;;;;;;;;;5054138;28;20464;-73
2021/06/07 01:26:27;;;;;;;9.75;6.20;;;;;;;;;;5054650;28;20071;-74
2021/06/07 01:28:55;;;;;;;7.80;5.35;;;;;;;;;;5057987;28;20059;-73
2021/06/07 01:31:21;;;;;;;9.15;5.82;;;;;;;;;;5057602;28;20045;-73
2021/06/07 01:33:49;;;;;;;8.45;5.38;;;;;;;;;;5053051;28;20471;-73
2021/06/07 01:36:16;;;;;;;8.48;6.07;;;;;;;;;;5054708;28;20044;-74
2021/06/07 01:38:42;;;;;;;9.98;6.05;;;;;;;;;;5050378;28;20099;-73
2021/06/07 01:41:12;;;;;;;11.10;6.35;;;;;;;;;;5062141;28;20092;-74
2021/06/07 01:43:40;;;;;;;10.77;6.38;;;;;;;;;;5058706;28;20040;-74
2021/06/07 01:46:06;;;;;;;7.22;5.53;;;;;;;;;;5043170;28;20040;-73
2021/06/07 01:48:32;;;;;;;8.70;5.97;;;;;;;;;;5056750;28;20131;-74
2021/06/07 01:51:00;;;;;;;10.45;6.57;;;;;;;;;;5059885;28;20816;-73
2021/06/07 01:53:28;;;;;;;13.15;5.85;;;;;;;;;;5055925;28;20044;-74
2021/06/07 01:55:56;;;;;;;10.40;6.43;;;;;;;;;;5056778;28;20069;-73
2021/06/07 01:58:23;;;;;;;10.65;5.60;;;;;;;;;;5055485;28;20064;-73
2021/06/07 02:00:52;;;;;;;10.23;5.88;;;;;;;;;;5049055;28;20044;-73
2021/06/07 02:03:20;;;;;;;12.52;6.03;;;;;;;;;;5060809;28;20040;-74
2021/06/07 02:05:48;;;;;;;8.38;6.30;;;;;;;;;;5044923;28;20227;-73
2021/06/07 02:08:15;;;;;;;9.48;6.13;;;;;;;;;;5055120;28;20036;-73
2021/06/07 02:10:44;;;;;;;8.48;6.38;;;;;;;;;;5058531;28;20055;-74
2021/06/07 02:13:11;;;;;;;11.57;5.93;;;;;;;;;;5056418;28;20048;-74
2021/06/07 02:15:38;;;;;;;11.65;7.40;;;;;;;;;;5058556;28;20047;-74
2021/06/07 02:18:05;;;;;;;11.85;7.50;;;;;;;;;;5049602;28;20044;-74
2021/06/07 02:20:32;;;;;;;11.15;7.22;;;;;;;;;;5055011;28;20111;-74
2021/06/07 02:22:59;;;;;;;9.98;6.78;;;;;;;;;;5039022;28;20044;-73
2021/06/07 02:25:25;;;;;;;9.93;7.35;;;;;;;;;;5044949;28;20045;-73
2021/06/07 02:27:52;;;;;;;8.85;6.72;;;;;;;;;;5038810;28;20040;-74
2021/06/07 02:30:21;;;;;;;10.75;6.32;;;;;;;;;;5055700;28;20044;-74
2021/06/07 02:32:47;;;;;;;11.00;5.90;;;;;;;;;;5054996;28;20048;-74
2021/06/07 02:35:15;;;;;;;12.32;6.35;;;;;;;;;;5054530;28;20503;-74
2021/06/07 02:37:42;;;;;;;14.32;7.50;;;;;;;;;;5036027;28;20439;-73
2021/06/07 02:40:10;;;;;;;9.10;7.25;;;;;;;;;;5051586;28;20047;-74
2021/06/07 02:42:37;;;;;;;10.38;7.30;;;;;;;;;;5050531;28;20037;-74
2021/06/07 02:45:05;;;;;;;11.75;7.57;;;;;;;;;;5050702;28;20115;-73
2021/06/07 02:47:31;;;;;;;11.25;8.05;;;;;;;;;;5053486;28;20127;-74
2021/06/07 02:49:57;;;;;;;13.93;8.30;;;;;;;;;;5041108;28;20060;-74
2021/06/07 02:52:24;;;;;;;19.60;8.43;;;;;;;;;;5053940;28;20148;-74
2021/06/07 02:54:51;;;;;;;11.50;8.13;;;;;;;;;;5050326;28;20132;-73
2021/06/07 02:57:17;;;;;;;8.95;6.95;;;;;;;;;;5055479;28;20059;-74
2021/06/07 02:59:44;;;;;;;8.85;7.28;;;;;;;;;;5040085;28;20055;-73
2021/06/07 03:02:10;;;;;;;12.93;7.68;;;;;;;;;;5053357;28;20412;-73
2021/06/07 03:04:37;;;;;;;9.55;7.57;;;;;;;;;;5056039;28;20037;-73
2021/06/07 03:07:03;;;;;;;15.73;9.20;;;;;;;;;;5053476;28;20143;-74
2021/06/07 03:09:30;;;;;;;9.77;7.50;;;;;;;;;;5049763;28;20045;-73
2021/06/07 03:11:57;;;;;;;10.23;7.47;;;;;;;;;;5056558;28;20488;-73
2021/06/07 03:14:23;;;;;;;11.02;8.35;;;;;;;;;;5043241;28;20497;-73
2021/06/07 03:16:49;;;;;;;10.27;7.47;;;;;;;;;;5055128;28;20093;-74
2021/06/07 03:19:16;;;;;;;11.07;8.50;;;;;;;;;;5053869;28;20052;-73
2021/06/07 03:21:42;;;;;;;12.52;7.43;;;;;;;;;;5057337;28;20053;-73
2021/06/07 03:24:08;;;;;;;12.38;7.80;;;;;;;;;;5052276;28;20051;-73
2021/06/07 03:26:35;;;;;;;9.95;8.38;;;;;;;;;;5056380;28;20040;-73
2021/06/07 03:29:01;;;;;;;14.73;9.75;;;;;;;;;;5054110;28;20048;-74
2021/06/07 03:31:27;;;;;;;16.98;9.30;;;;;;;;;;5054539;28;20041;-73
2021/06/07 03:33:54;;;;;;;12.05;8.25;;;;;;;;;;5054621;28;20180;-73
2021/06/07 03:36:22;;;;;;;12.90;8.15;;;;;;;;;;5058514;28;20114;-73
2021/06/07 03:38:48;;;;;;;13.57;9.02;;;;;;;;;;5036194;28;20040;-74
2021/06/07 03:41:16;;;;;;;13.07;9.13;;;;;;;;;;5056775;28;20040;-73
2021/06/07 03:43:42;;;;;;;16.38;10.98;;;;;;;;;;5053759;28;20127;-74
2021/06/07 03:46:08;;;;;;;14.02;10.20;;;;;;;;;;5058446;28;20036;-73
2021/06/07 03:48:35;;;;;;;14.18;9.80;;;;;;;;;;5043254;28;20400;-73
2021/06/07 03:51:01;;;;;;;13.93;9.90;;;;;;;;;;5061369;28;20048;-73
2021/06/07 03:53:28;;;;;;;15.05;8.90;;;;;;;;;;5060408;28;20037;-73
2021/06/07 03:55:54;;;;;;;15.02;10.00;;;;;;;;;;5051557;28;20048;-73
2021/06/07 03:58:21;;;;;;;13.98;9.38;;;;;;;;;;5054884;28;20044;-74
2021/06/07 04:00:48;;;;;;;11.30;9.35;;;;;;;;;;5059205;28;20048;-74
2021/06/07 04:03:14;;;;;;;15.02;9.50;;;;;;;;;;5042191;28;20048;-74
2021/06/07 04:05:40;;;;;;;13.18;9.35;;;;;;;;;;5035820;28;20415;-73
2021/06/07 04:08:09;;;;;;;14.40;9.93;;;;;;;;;;5055650;28;20501;-73
2021/06/07 04:10:35;;;;;;;11.88;10.18;;;;;;;;;;5037979;28;20051;-73
2021/06/07 04:13:01;;;;;;;12.75;9.27;;;;;;;;;;5054890;28;20052;-74
2021/06/07 04:15:28;;;;;;;11.25;9.25;;;;;;;;;;5056548;28;20414;-74
2021/06/07 04:17:56;;;;;;;13.35;9.70;;;;;;;;;;5059806;28;20052;-74
2021/06/07 04:20:24;;;;;;;11.20;8.68;;;;;;;;;;5059448;28;20037;-73
2021/06/07 04:22:50;;;;;;;15.38;9.93;;;;;;;;;;5036334;28;20044;-74
2021/06/07 04:25:18;;;;;;;11.93;9.90;;;;;;;;;;5062540;28;20045;-74
2021/06/07 04:27:44;;;;;;;12.32;10.32;;;;;;;;;;5058305;28;20440;-74
2021/06/07 04:30:12;;;;;;;14.38;10.65;;;;;;;;;;5046967;28;20040;-73
2021/06/07 04:32:39;;;;;;;14.27;11.40;;;;;;;;;;5056242;28;20053;-73
2021/06/07 04:35:08;;;;;;;14.48;11.40;;;;;;;;;;5050675;28;20052;-74
2021/06/07 04:37:41;;;;;;;13.68;10.00;;;;;;;;;;5053536;28;20058;-74
2021/06/07 04:40:08;;;;;;;17.40;11.27;;;;;;;;;;5057384;28;20045;-72
2021/06/07 04:42:34;;;;;;;14.30;9.57;;;;;;;;;;5056162;28;20040;-74
2021/06/07 04:45:01;;;;;;;16.00;11.25;;;;;;;;;;5057492;28;20127;-74
2021/06/07 04:47:27;;;;;;;12.95;10.27;;;;;;;;;;5069713;28;20416;-74
2021/06/07 04:49:53;;;;;;;17.33;11.73;;;;;;;;;;5065444;28;20273;-73
2021/06/07 04:52:21;;;;;;;16.23;11.93;;;;;;;;;;5061735;28;20049;-74
2021/06/07 04:54:48;;;;;;;15.38;11.23;;;;;;;;;;5060903;28;20041;-74
2021/06/07 04:57:15;;;;;;;15.20;11.38;;;;;;;;;;5054508;28;20140;-74
2021/06/07 04:59:41;;;;;;;17.55;11.73;;;;;;;;;;5060145;28;20052;-74
2021/06/07 05:02:08;;;;;;;13.50;11.05;;;;;;;;;;5067220;28;20052;-74
2021/06/07 05:04:35;;;;;;;15.10;11.15;;;;;;;;;;5061632;28;20210;-73
2021/06/07 05:07:01;;;;;;;14.48;10.40;;;;;;;;;;5067854;28;20032;-74
2021/06/07 05:09:28;;;;;;;12.85;10.35;;;;;;;;;;5059681;28;20111;-74
2021/06/07 05:11:54;;;;;;;15.45;9.43;;;;;;;;;;5061069;28;20044;-74
2021/06/07 05:14:21;;;;;;;12.02;10.50;;;;;;;;;;5054571;28;20480;-74
2021/06/07 05:16:47;;;;;;;15.05;10.38;;;;;;;;;;5065185;28;20044;-73
2021/06/07 05:19:13;;;;;;;11.30;9.95;;;;;;;;;;5064306;28;20064;-73
2021/06/07 05:21:40;;;;;;;12.20;9.82;;;;;;;;;;5064577;28;20049;-73
2021/06/07 05:24:06;;;;;;;13.55;10.38;;;;;;;;;;5057729;28;20064;-74
2021/06/07 05:26:32;;;;;;;13.05;10.95;;;;;;;;;;5068422;28;20055;-73
2021/06/07 05:28:59;;;;;;;11.80;9.32;;;;;;;;;;5061603;28;20064;-73
2021/06/07 05:31:25;;;;;;;11.20;9.20;;;;;;;;;;5056185;28;20044;-73
2021/06/07 05:33:52;;;;;;;17.95;9.85;;;;;;;;;;5057470;28;20033;-73
2021/06/07 05:36:18;;;;;;;15.88;10.18;;;;;;;;;;5057140;28;20037;-73
2021/06/07 05:38:45;;;;;;;14.15;9.50;;;;;;;;;;5048015;28;20250;-73
2021/06/07 05:41:11;;;;;;;11.68;10.43;;;;;;;;;;5049103;28;20044;-73
2021/06/07 05:43:37;;;;;;;12.25;9.70;;;;;;;;;;5054825;28;20047;-73
2021/06/07 05:46:04;;;;;;;13.60;9.82;;;;;;;;;;5062814;28;20056;-73
2021/06/07 05:48:30;;;;;;;11.05;8.07;;;;;;;;;;5058430;28;20036;-73
2021/06/07 05:50:57;;;;;;;11.60;8.32;;;;;;;;;;5038595;28;20045;-73
2021/06/07 05:53:23;;;;;;;12.60;8.43;;;;;;;;;;5041980;28;20444;-73
2021/06/07 05:55:50;;;;;;;14.85;8.52;;;;;;;;;;5046875;28;20119;-73
2021/06/07 05:58:18;;;;;;;11.95;8.95;;;;;;;;;;5054644;28;20085;-73
2021/06/07 06:00:46;;;;;;;13.15;8.70;;;;;;;;;;5054261;28;20477;-73
2021/06/07 06:03:15;;;;;;;12.88;7.70;;;;;;;;;;5049754;28;20068;-73
2021/06/07 06:05:42;;;;;;;10.55;7.60;;;;;;;;;;5052640;28;20123;-73
2021/06/07 06:08:10;;;;;;;9.32;6.65;;;;;;;;;;5055142;28;20048;-73
2021/06/07 06:10:37;;;;;;;8.48;6.47;;;;;;;;;;5036652;28;20041;-73
2021/06/07 06:13:04;;;;;;;9.45;5.40;;;;;;;;;;5054924;28;20052;-73
2021/06/07 06:15:31;;;;;;;13.27;4.80;;;;;;;;;;5057842;28;20045;-73
2021/06/07 06:17:57;;;;;;;9.27;4.88;;;;;;;;;;5053094;28;20127;-74
2021/06/07 06:20:29;;;;;;;7.28;4.70;;;;;;;;;;5055512;28;20374;-73
2021/06/07 06:22:55;;;;;;;8.45;5.63;;;;;;;;;;5058462;28;20244;-74
2021/06/07 06:25:22;;;;;;;8.20;4.40;;;;;;;;;;5062850;28;20105;-74
2021/06/07 06:27:48;;;;;;;8.00;4.60;;;;;;;;;;5055721;28;20075;-73
2021/06/07 06:30:17;;;;;;;7.50;4.45;;;;;;;;;;5054496;28;20069;-74
2021/06/07 06:32:45;;;;;;;10.73;5.13;;;;;;;;;;5055908;28;20049;-74
2021/06/07 06:35:11;;;;;;;10.18;4.90;;;;;;;;;;5051060;28;20467;-74
2021/06/07 06:37:38;;;;;;;7.65;4.40;;;;;;;;;;5060942;28;20048;-74
2021/06/07 06:40:05;;;;;;;6.55;3.88;;;;;;;;;;5053874;28;20182;-74
2021/06/07 06:42:35;;;;;;;5.28;3.75;;;;;;;;;;5067606;28;20638;-74
2021/06/07 06:45:02;;;;;;;8.48;4.30;;;;;;;;;;5070132;28;20037;-74
2021/06/07 06:47:28;;;;;;;5.47;3.90;;;;;;;;;;5061860;28;20049;-73
2021/06/07 06:49:55;;;;;;;6.15;3.65;;;;;;;;;;5061939;28;20040;-74
2021/06/07 06:52:22;;;;;;;9.20;4.10;;;;;;;;;;5061640;28;20099;-74
2021/06/07 06:54:48;;;;;;;8.18;3.92;;;;;;;;;;5041925;28;20484;-74
2021/06/07 06:57:14;;;;;;;11.13;4.13;;;;;;;;;;5044551;28;20068;-74
2021/06/07 06:59:41;;;;;;;6.57;4.13;;;;;;;;;;5047415;28;20045;-74
2021/06/07 07:02:07;;;;;;;8.80;3.85;;;;;;;;;;5047383;28;20496;-74
2021/06/07 07:04:34;;;;;;;8.25;4.20;;;;;;;;;;5047447;28;20064;-73
2021/06/07 07:07:00;;;;;;;8.10;3.80;;;;;;;;;;5043704;28;20040;-74
2021/06/07 07:09:26;;;;;;;6.35;3.60;;;;;;;;;;5042260;28;20475;-74
2021/06/07 07:11:53;;;;;;;6.97;3.75;;;;;;;;;;5047269;28;20052;-73
2021/06/07 07:14:19;;;;;;;6.65;3.30;;;;;;;;;;5042954;28;20029;-74
2021/06/07 07:16:46;;;;;;;7.60;4.03;;;;;;;;;;5040207;28;20104;-74
2021/06/07 07:19:12;;;;;;;6.40;3.83;;;;;;;;;;5045899;28;20112;-74
2021/06/07 07:21:38;;;;;;;7.28;4.03;;;;;;;;;;5038593;28;20044;-74
2021/06/07 07:24:05;;;;;;;10.57;3.97;;;;;;;;;;5046955;28;20417;-74
2021/06/07 07:26:31;;;;;;;9.13;4.28;;;;;;;;;;5048096;28;20477;-73
2021/06/07 07:28:58;;;;;;;8.68;4.72;;;;;;;;;;5046014;28;20048;-74
2021/06/07 07:31:24;;;;;;;7.47;4.30;;;;;;;;;;5061633;28;20083;-74
2021/06/07 07:33:50;;;;;;;9.10;3.90;;;;;;;;;;5045244;28;20461;-74
2021/06/07 07:36:17;;;;;;;6.13;4.20;;;;;;;;;;5043954;28;20057;-74
2021/06/07 07:38:43;;;;;;;8.50;4.15;;;;;;;;;;5040382;28;20065;-74
2021/06/07 07:41:11;;;;;;;4.95;3.70;;;;;;;;;;5046242;28;20060;-74
2021/06/07 07:43:38;;;;;;;8.13;3.70;;;;;;;;;;5039472;28;20479;-74
2021/06/07 07:46:04;;;;;;;5.97;3.75;;;;;;;;;;5045397;28;20042;-74
2021/06/07 07:48:31;;;;;;;6.72;3.45;;;;;;;;;;5049326;28;20066;-74
2021/06/07 07:50:57;;;;;;;8.77;3.05;;;;;;;;;;5045277;28;20096;-73
2021/06/07 07:53:27;;;;;;;9.30;3.67;;;;;;;;;;5066748;28;20535;-73
2021/06/07 07:55:54;;;;;;;5.85;3.15;;;;;;;;;;5062230;28;20049;-73
2021/06/07 07:58:20;;;;;;;7.13;3.90;;;;;;;;;;5064529;28;20052;-74
2021/06/07 08:00:47;;;;;;;6.28;3.25;;;;;;;;;;5064535;28;20053;-74
2021/06/07 08:03:14;;;;;;;9.07;3.30;;;;;;;;;;5060168;28;20040;-72
2021/06/07 08:05:41;;;;;;;5.90;3.53;;;;;;;;;;5064194;28;20547;-72
2021/06/07 08:08:07;;;;;;;10.55;3.97;;;;;;;;;;5069357;28;20094;-77
2021/06/07 08:10:34;;;;;;;8.82;3.70;;;;;;;;;;5068645;28;20041;-77
2021/06/07 08:13:01;;;;;;;6.90;4.30;;;;;;;;;;5062982;28;20422;-77
2021/06/07 08:15:27;;;;;;;9.60;4.30;;;;;;;;;;5051623;28;20032;-77
2021/06/07 08:17:54;;;;;;;12.70;4.20;;;;;;;;;;5049869;28;20106;-77
2021/06/07 08:20:21;;;;;;;7.60;5.00;;;;;;;;;;5068096;28;20051;-77
2021/06/07 08:22:49;;;;;;;11.68;5.88;;;;;;;;;;5063356;28;20048;-77
2021/06/07 08:25:16;;;;;;;9.65;6.00;;;;;;;;;;5068245;28;20044;-77
2021/06/07 08:27:42;;;;;;;9.68;4.72;;;;;;;;;;5069431;28;20040;-77
2021/06/07 08:30:09;;;;;;;9.73;5.55;;;;;;;;;;5069895;28;20045;-78
2021/06/07 08:32:36;;;;;;;11.02;5.53;;;;;;;;;;5068952;28;20047;-77
2021/06/07 08:35:03;;;;;;;9.68;5.55;;;;;;;;;;5069742;28;20104;-78
2021/06/07 08:37:30;;;;;;;11.18;5.50;;;;;;;;;;5063819;28;20093;-78
2021/06/07 08:39:56;;;;;;;11.50;5.80;;;;;;;;;;5051693;28;20051;-78
2021/06/07 08:42:23;;;;;;;6.28;4.78;;;;;;;;;;5067778;28;20041;-78
2021/06/07 08:44:49;;;;;;;6.75;4.45;;;;;;;;;;5053926;28;20044;-78
2021/06/07 08:47:15;;;;;;;5.97;4.13;;;;;;;;;;5055388;28;20071;-78
2021/06/07 08:49:42;;;;;;;5.45;3.90;;;;;;;;;;5062563;28;20048;-78
2021/06/07 08:52:09;;;;;;;7.63;4.28;;;;;;;;;;5065921;28;20064;-75
2021/06/07 08:54:37;;;;;;;7.90;4.20;;;;;;;;;;5068910;28;20045;-76
2021/06/07 08:57:03;;;;;;;7.05;3.78;;;;;;;;;;5068385;28;20048;-76
2021/06/07 08:59:30;;;;;;;7.40;4.40;;;;;;;;;;5049989;28;20131;-76
2021/06/07 09:02:00;;;;;;;8.90;3.80;;;;;;;;;;5068113;28;20083;-76
2021/06/07 09:04:27;;;;;;;7.28;3.92;;;;;;;;;;5067141;28;20040;-76
2021/06/07 09:06:54;;;;;;;8.25;3.85;;;;;;;;;;5068049;28;20114;-76
2021/06/07 09:09:22;;;;;;;7.22;3.95;;;;;;;;;;5067937;28;20067;-76
2021/06/07 09:11:56;;;;;;;5.80;3.45;;;;;;;;;;5068974;28;20491;-76
2021/06/07 09:14:25;;;;;;;6.57;3.20;;;;;;;;;;5065625;28;20071;-76
2021/06/07 09:16:52;;;;;;;5.68;3.65;;;;;;;;;;5068933;28;20113;-76
2021/06/07 09:19:20;;;;;;;6.43;3.58;;;;;;;;;;5062910;28;20119;-76
2021/06/07 09:21:47;;;;;;;7.63;3.67;;;;;;;;;;5064921;28;20462;-76
2021/06/07 09:24:14;;;;;;;6.97;3.80;;;;;;;;;;5069692;28;20036;-76
2021/06/07 09:26:43;;;;;;;7.00;4.05;;;;;;;;;;5069850;28;20173;-76
2021/06/07 09:29:13;;;;;;;6.53;4.05;;;;;;;;;;5068580;28;20120;-76
2021/06/07 09:31:42;;;;;;;6.30;4.30;;;;;;;;;;5069262;28;20142;-76
2021/06/07 09:34:09;;;;;;;6.25;4.00;;;;;;;;;;5069345;28;20479;-76
2021/06/07 09:36:36;;;;;;;7.32;3.78;;;;;;;;;;5068983;28;20040;-76
2021/06/07 09:39:14;;;;;;;6.65;3.72;;;;;;;;;;5069450;28;20072;-76
2021/06/07 09:41:41;;;;;;;8.15;4.50;;;;;;;;;;5063503;28;20060;-78
2021/06/07 09:44:07;;;;;;;7.38;3.85;;;;;;;;;;5063247;28;20207;-78
2021/06/07 09:46:33;;;;;;;5.95;4.05;;;;;;;;;;5052285;28;20044;-79
2021/06/07 09:49:07;;;;;;;5.72;3.53;;;;;;;;;;5070448;28;20507;-78
2021/06/07 09:51:34;;;;;;;5.70;3.78;;;;;;;;;;5065836;28;20049;-78
2021/06/07 09:54:00;;;;;;;6.75;3.20;;;;;;;;;;5046231;28;20053;-78
2021/06/07 09:56:27;;;;;;;6.53;3.58;;;;;;;;;;5048073;28;20049;-78
2021/06/07 09:58:54;;;;;;;6.03;3.88;;;;;;;;;;5051427;28;20057;-78
2021/06/07 10:01:27;;;;;;;7.78;3.65;;;;;;;;;;5050658;28;20067;-78
2021/06/07 10:03:53;;;;;;;;;;;;;;;;;;5051048;28;20052;-78
2021/06/07 10:06:21;;;;;;;6.28;2.88;;;;;;;;;;5039413;28;19932;-79
2021/06/07 10:08:49;;;;;;;4.25;2.95;;;;;;;;;;5053776;28;20421;-79
2021/06/07 10:11:21;;;;;;;5.25;2.70;;;;;;;;;;5049653;28;20056;-79
2021/06/07 10:13:48;;;;;;;5.63;3.45;;;;;;;;;;5049908;28;20072;-78
2021/06/07 10:16:15;;;;;;;5.03;2.90;;;;;;;;;;5048865;28;20041;-78
2021/06/07 10:18:41;;;;;;;5.28;3.08;;;;;;;;;;5048704;28;20053;-78
2021/06/07 10:21:11;;;;;;;6.38;3.75;;;;;;;;;;5049786;28;20094;-78
2021/06/07 10:23:38;;;;;;;5.80;2.83;;;;;;;;;;5049052;28;20094;-78
2021/06/07 10:26:07;;;;;;;5.22;2.78;;;;;;;;;;5049605;28;20048;-79
2021/06/07 10:28:36;;;;;;;7.47;3.30;;;;;;;;;;5049803;28;20049;-78
2021/06/07 10:31:12;;;;;;;6.38;3.13;;;;;;;;;;5048949;28;20128;-78
2021/06/07 10:33:39;;;;;;;5.10;3.03;;;;;;;;;;5049373;28;20156;-78
2021/06/07 10:36:22;;;;;;;7.40;3.25;;;;;;;;;;5049900;28;20037;-78
2021/06/07 10:38:53;;;;;;;6.53;3.70;;;;;;;;;;5048903;28;20055;-76
2021/06/07 10:41:23;;;;;;;7.07;3.60;;;;;;;;;;5047592;28;20066;-78
2021/06/07 10:43:50;;;;;;;11.10;3.65;;;;;;;;;;5048210;28;20051;-78
2021/06/07 10:46:25;;;;;;;5.38;3.97;;;;;;;;;;5044744;28;20481;-79
2021/06/07 10:48:52;;;;;;;5.47;3.85;;;;;;;;;;5050036;28;20441;-78
2021/06/07 10:51:20;;;;;;;8.05;4.80;;;;;;;;;;5048191;28;20048;-78
2021/06/07 10:53:47;;;;;;;6.80;4.22;;;;;;;;;;5068714;28;20454;-78
2021/06/07 10:56:14;;;;;;;8.93;4.53;;;;;;;;;;5068871;28;20056;-78
2021/06/07 10:58:49;;;;;;;5.88;3.97;;;;;;;;;;5068759;28;20044;-78
2021/06/07 11:01:16;;;;;;;5.60;4.10;;;;;;;;;;5068900;28;20429;-78
2021/06/07 11:03:52;;;;;;;5.95;4.03;;;;;;;;;;5069235;28;20082;-78
2021/06/07 11:06:19;;;;;;;6.55;4.60;;;;;;;;;;5066840;28;20044;-78
2021/06/07 11:09:00;;;;;;;6.32;4.45;;;;;;;;;;5068797;28;20092;-79
2021/06/07 11:11:41;;;;;;;5.85;5.05;;;;;;;;;;5048741;28;20095;-78
2021/06/07 11:14:08;;;;;;;7.03;4.90;;;;;;;;;;5070220;28;20047;-78
2021/06/07 11:16:38;;;;;;;5.78;5.03;;;;;;;;;;5065673;28;20060;-78
2021/06/07 11:19:09;;;;;;;7.35;5.97;;;;;;;;;;5069369;28;20067;-78
2021/06/07 11:21:38;;;;;;;7.13;6.43;;;;;;;;;;5069123;28;20127;-79
2021/06/07 11:24:24;;;;;;;7.68;6.80;;;;;;;;;;5069296;28;20060;-79
2021/06/07 11:26:51;;;;;;;9.07;5.32;;;;;;;;;;5065590;28;20036;-79
2021/06/07 11:29:17;;;;;;;7.13;6.15;;;;;;;;;;5069480;28;20044;-78
2021/06/07 11:31:48;;;;;;;7.78;6.40;;;;;;;;;;5069471;28;20494;-78
2021/06/07 11:34:17;;;;;;;8.23;6.07;;;;;;;;;;5068544;28;20451;-78
2021/06/07 11:36:59;;;;;;;8.50;5.45;;;;;;;;;;5068965;28;20476;-78
2021/06/07 11:39:27;;;;;;;6.78;5.68;;;;;;;;;;5068699;28;20067;-79
2021/06/07 11:41:57;;;;;;;8.13;6.88;;;;;;;;;;5065628;28;20036;-79
2021/06/07 11:44:42;;;;;;;6.53;5.18;;;;;;;;;;5069327;28;20495;-78
2021/06/07 11:47:09;;;;;;;6.38;5.30;;;;;;;;;;5068287;28;20045;-78
2021/06/07 11:49:36;;;;;;;7.00;5.40;;;;;;;;;;5068880;28;20122;-79
2021/06/07 11:52:05;;;;;;;5.82;5.07;;;;;;;;;;5068661;28;20049;-79
2021/06/07 11:54:35;;;;;;;7.28;4.72;;;;;;;;;;5069365;28;20041;-78
2021/06/07 11:57:03;;;;;;;6.53;5.82;;;;;;;;;;5068059;28;20064;-78
2021/06/07 11:59:32;;;;;;;8.32;6.35;;;;;;;;;;5069219;28;20167;-79
2021/06/07 12:01:59;;;;;;;8.00;5.18;;;;;;;;;;5068354;28;20060;-79
2021/06/07 12:04:25;;;;;;;9.10;5.43;;;;;;;;;;5069118;28;20076;-78
2021/06/07 12:06:58;;;;;;;7.97;6.10;;;;;;;;;;5068516;28;20049;-78
2021/06/07 12:09:25;;;;;;;8.57;6.28;;;;;;;;;;5065669;28;20045;-78
2021/06/07 12:11:52;;;;;;;7.75;5.65;;;;;;;;;;5066164;28;20037;-79
2021/06/07 12:14:27;;;;;;;7.93;6.20;;;;;;;;;;5068444;28;20041;-79
2021/06/07 12:16:54;;;;;;;8.35;7.15;;;;;;;;;;5067760;28;20357;-78
2021/06/07 12:19:30;;;;;;;8.93;7.40;;;;;;;;;;5071837;28;20051;-79
2021/06/07 12:21:56;;;;;;;9.20;7.18;;;;;;;;;;5071830;28;20051;-79
2021/06/07 12:24:23;;;;;;;8.48;7.60;;;;;;;;;;5071513;28;20114;-79
2021/06/07 12:29:35;;;;;;;9.48;8.20;;;;;;;;;;5072530;28;20056;-79
2021/06/07 12:32:09;;;;;;;8.50;7.47;;;;;;;;;;5070903;28;20063;-79
2021/06/07 12:34:36;;;;;;;9.38;7.40;;;;;;;;;;5072091;28;20128;-79
2021/06/07 12:37:03;;;;;;;10.27;7.40;;;;;;;;;;5053147;28;20044;-79
2021/06/07 12:39:30;;;;;;;8.10;7.25;;;;;;;;;;5067921;28;20053;-79
2021/06/07 12:41:56;;;;;;;8.63;7.82;;;;;;;;;;5072019;28;20094;-79
2021/06/07 12:44:24;;;;;;;9.98;7.32;;;;;;;;;;5071110;28;20106;-79
2021/06/07 12:46:52;;;;;;;7.35;6.30;;;;;;;;;;5071158;28;20037;-79
2021/06/07 12:49:26;;;;;;;8.82;6.93;;;;;;;;;;5071822;28;20071;-79
2021/06/07 12:52:00;;;;;;;7.60;6.82;;;;;;;;;;5070599;28;20105;-79
2021/06/07 12:54:28;;;;;;;7.43;5.60;;;;;;;;;;5071402;28;20085;-79
2021/06/07 12:56:56;;;;;;;9.40;6.50;;;;;;;;;;5071248;28;20051;-78
2021/06/07 12:59:30;;;;;;;8.35;7.03;;;;;;;;;;5071031;28;20138;-78
2021/06/07 13:01:58;;;;;;;8.73;6.15;;;;;;;;;;5071098;28;20045;-79
2021/06/07 13:04:27;;;;;;;8.18;6.68;;;;;;;;;;5071589;28;20044;-79
2021/06/07 13:06:53;;;;;;;6.80;5.68;;;;;;;;;;5070236;28;20056;-79
2021/06/07 13:09:31;;;;;;;8.38;6.00;;;;;;;;;;5071350;28;20080;-82
2021/06/07 13:11:58;;;;;;;6.55;4.70;;;;;;;;;;5071006;28;20072;-78
2021/06/07 13:14:26;;;;;;;8.38;5.45;;;;;;;;;;5071046;28;20094;-79
2021/06/07 13:16:56;;;;;;;7.93;5.57;;;;;;;;;;5071222;28;20447;-79
2021/06/07 13:19:28;;;;;;;6.97;5.10;;;;;;;;;;5071002;28;20039;-78
2021/06/07 13:21:57;;;;;;;9.60;5.10;;;;;;;;;;5071717;28;20056;-79
2021/06/07 13:24:38;;;;;;;7.20;5.25;;;;;;;;;;5071305;28;20125;-79
2021/06/07 13:27:09;;;;;;;8.15;4.70;;;;;;;;;;5070424;28;20044;-79
2021/06/07 13:29:40;;;;;;;9.88;5.55;;;;;;;;;;5070180;28;20504;-79
2021/06/07 13:32:19;;;;;;;8.10;5.55;;;;;;;;;;5070379;28;20093;-79
2021/06/07 13:34:48;;;;;;;10.90;6.10;;;;;;;;;;5069963;28;20352;-79
2021/06/07 13:37:19;;;;;;;7.35;5.63;;;;;;;;;;5071102;28;20403;-80
2021/06/07 13:39:55;;;;;;;7.78;5.50;;;;;;;;;;5071429;28;20045;-79
2021/06/07 13:42:21;;;;;;;8.27;5.93;;;;;;;;;;5067349;28;20070;-79
2021/06/07 13:44:52;;;;;;;7.65;5.80;;;;;;;;;;5071431;28;20114;-79
2021/06/07 13:47:20;;;;;;;7.55;6.10;;;;;;;;;;5069594;28;20075;-79
2021/06/07 13:49:59;;;;;;;7.75;6.15;;;;;;;;;;5071185;28;20040;-79
2021/06/07 13:52:35;;;;;;;9.35;6.05;;;;;;;;;;5070206;28;20088;-79
2021/06/07 13:55:01;;;;;;;10.25;6.63;;;;;;;;;;5069443;28;20029;-79
2021/06/07 13:57:27;;;;;;;10.38;6.15;;;;;;;;;;5071212;28;20147;-79
2021/06/07 13:59:54;;;;;;;9.13;6.15;;;;;;;;;;5074058;28;20173;-79
2021/06/07 14:02:20;;;;;;;9.20;6.22;;;;;;;;;;5068646;28;20047;-79
2021/06/07 14:04:46;;;;;;;7.07;5.10;;;;;;;;;;5071233;28;20051;-80
2021/06/07 14:07:13;;;;;;;8.82;5.90;;;;;;;;;;5070323;28;20040;-79
2021/06/07 14:09:39;;;;;;;10.68;5.20;;;;;;;;;;5071339;28;20377;-79
2021/06/07 14:12:07;;;;;;;8.38;5.75;;;;;;;;;;5069524;28;20471;-79
2021/06/07 14:14:33;;;;;;;7.88;5.35;;;;;;;;;;5063607;28;20037;-80
2021/06/07 14:17:01;;;;;;;7.03;5.20;;;;;;;;;;5070033;28;20053;-79
2021/06/07 14:19:47;;;;;;;8.65;5.85;;;;;;;;;;5051441;28;20153;-79
2021/06/07 14:24:42;;;;;;;7.72;5.40;;;;;;;;;;5068918;28;20475;-79
2021/06/07 14:27:10;;;;;;;7.10;5.57;;;;;;;;;;5060828;28;20049;-79
2021/06/07 14:29:38;;;;;;;8.32;5.70;;;;;;;;;;5063105;28;20166;-79
2021/06/07 14:32:05;;;;;;;9.88;5.65;;;;;;;;;;5067712;28;20062;-79
2021/06/07 14:34:31;;;;;;;9.73;5.90;;;;;;;;;;5066271;28;20120;-80
2021/06/07 14:36:58;;;;;;;9.35;6.00;;;;;;;;;;5065886;28;20044;-79
2021/06/07 14:39:24;;;;;;;7.78;6.30;;;;;;;;;;5067557;28;20119;-79
2021/06/07 14:41:51;;;;;;;7.78;6.65;;;;;;;;;;5066400;28;20048;-78
2021/06/07 14:44:18;;;;;;;8.65;6.75;;;;;;;;;;5066959;28;20056;-77
2021/06/07 14:46:44;;;;;;;9.55;7.63;;;;;;;;;;5066786;28;20126;-79